sensor_id;sensor_type;location;lat;lon;timestamp;P1;durP1;ratioP1;P2;durP2;ratioP2
37309;SDS011;23195;47.744;7.358;2022-12-18T00:01:29;88.63;;;22.83;;
37309;SDS011;23195;47.744;7.358;2022-12-18T00:04:00;92.43;;;20.90;;
37309;SDS011;23195;47.744;7.358;2022-12-18T00:06:27;111.40;;;22.57;;
37309;SDS011;23195;47.744;7.358;2022-12-18T00:08:57;116.83;;;24.57;;
37309;SDS011;23195;47.744;7.358;2022-12-18T00:11:25;90.23;;;22.03;;
37309;SDS011;23195;47.744;7.358;2022-12-18T00:13:58;127.70;;;25.37;;
37309;SDS011;23195;47.744;7.358;2022-12-18T00:16:27;92.50;;;22.27;;
37309;SDS011;23195;47.744;7.358;2022-12-18T00:18:55;106.73;;;24.50;;
37309;SDS011;23195;47.744;7.358;2022-12-18T00:21:25;104.83;;;23.30;;
37309;SDS011;23195;47.744;7.358;2022-12-18T00:23:52;90.43;;;22.10;;
37309;SDS011;23195;47.744;7.358;2022-12-18T00:26:19;106.60;;;23.77;;
37309;SDS011;23195;47.744;7.358;2022-12-18T00:28:47;105.37;;;24.20;;
37309;SDS011;23195;47.744;7.358;2022-12-18T00:31:15;94.20;;;22.67;;
37309;SDS011;23195;47.744;7.358;2022-12-18T00:33:43;98.73;;;21.97;;
37309;SDS011;23195;47.744;7.358;2022-12-18T00:36:12;83.60;;;23.23;;
37309;SDS011;23195;47.744;7.358;2022-12-18T00:38:40;87.50;;;21.27;;
37309;SDS011;23195;47.744;7.358;2022-12-18T00:41:06;93.97;;;23.37;;
37309;SDS011;23195;47.744;7.358;2022-12-18T00:43:33;89.53;;;22.63;;
37309;SDS011;23195;47.744;7.358;2022-12-18T00:46:02;90.57;;;24.20;;
37309;SDS011;23195;47.744;7.358;2022-12-18T00:48:31;80.10;;;21.53;;
37309;SDS011;23195;47.744;7.358;2022-12-18T00:50:57;95.73;;;22.17;;
37309;SDS011;23195;47.744;7.358;2022-12-18T00:53:23;84.93;;;21.73;;
37309;SDS011;23195;47.744;7.358;2022-12-18T00:55:48;132.13;;;24.73;;
37309;SDS011;23195;47.744;7.358;2022-12-18T00:58:15;82.40;;;21.77;;
37309;SDS011;23195;47.744;7.358;2022-12-18T01:00:48;93.97;;;20.17;;
37309;SDS011;23195;47.744;7.358;2022-12-18T01:03:14;90.17;;;22.03;;
37309;SDS011;23195;47.744;7.358;2022-12-18T01:05:40;139.97;;;24.00;;
37309;SDS011;23195;47.744;7.358;2022-12-18T01:08:06;105.80;;;22.00;;
37309;SDS011;23195;47.744;7.358;2022-12-18T01:10:32;121.97;;;23.37;;
37309;SDS011;23195;47.744;7.358;2022-12-18T01:12:57;109.50;;;23.33;;
37309;SDS011;23195;47.744;7.358;2022-12-18T01:15:23;95.00;;;23.20;;
37309;SDS011;23195;47.744;7.358;2022-12-18T01:17:51;99.90;;;20.67;;
37309;SDS011;23195;47.744;7.358;2022-12-18T01:20:18;141.03;;;22.47;;
37309;SDS011;23195;47.744;7.358;2022-12-18T01:22:43;121.20;;;21.50;;
37309;SDS011;23195;47.744;7.358;2022-12-18T01:25:14;124.80;;;23.47;;
37309;SDS011;23195;47.744;7.358;2022-12-18T01:27:40;105.57;;;21.83;;
37309;SDS011;23195;47.744;7.358;2022-12-18T01:30:06;84.97;;;21.37;;
37309;SDS011;23195;47.744;7.358;2022-12-18T01:32:38;99.50;;;22.27;;
37309;SDS011;23195;47.744;7.358;2022-12-18T01:35:07;113.50;;;22.13;;
37309;SDS011;23195;47.744;7.358;2022-12-18T01:37:33;106.17;;;22.57;;
37309;SDS011;23195;47.744;7.358;2022-12-18T01:39:59;73.77;;;21.13;;
37309;SDS011;23195;47.744;7.358;2022-12-18T01:42:25;106.47;;;23.10;;
37309;SDS011;23195;47.744;7.358;2022-12-18T01:47:45;84.30;;;23.17;;
37309;SDS011;23195;47.744;7.358;2022-12-18T01:50:39;129.80;;;25.33;;
37309;SDS011;23195;47.744;7.358;2022-12-18T01:53:08;109.23;;;24.40;;
37309;SDS011;23195;47.744;7.358;2022-12-18T01:55:38;122.93;;;23.83;;
37309;SDS011;23195;47.744;7.358;2022-12-18T01:58:08;89.97;;;24.17;;
37309;SDS011;23195;47.744;7.358;2022-12-18T02:00:34;102.40;;;22.13;;
37309;SDS011;23195;47.744;7.358;2022-12-18T02:03:00;90.27;;;23.17;;
37309;SDS011;23195;47.744;7.358;2022-12-18T02:08:23;97.10;;;23.03;;
37309;SDS011;23195;47.744;7.358;2022-12-18T02:11:05;92.47;;;22.90;;
37309;SDS011;23195;47.744;7.358;2022-12-18T02:17:13;94.67;;;24.37;;
37309;SDS011;23195;47.744;7.358;2022-12-18T02:28:06;100.67;;;24.50;;
37309;SDS011;23195;47.744;7.358;2022-12-18T02:30:37;95.80;;;23.40;;
37309;SDS011;23195;47.744;7.358;2022-12-18T02:33:06;104.23;;;23.00;;
37309;SDS011;23195;47.744;7.358;2022-12-18T02:35:34;88.67;;;24.33;;
37309;SDS011;23195;47.744;7.358;2022-12-18T02:38:02;91.57;;;24.00;;
37309;SDS011;23195;47.744;7.358;2022-12-18T02:40:29;86.13;;;23.90;;
37309;SDS011;23195;47.744;7.358;2022-12-18T02:43:01;107.80;;;23.77;;
37309;SDS011;23195;47.744;7.358;2022-12-18T02:45:32;106.80;;;23.87;;
37309;SDS011;23195;47.744;7.358;2022-12-18T02:47:57;99.83;;;22.77;;
37309;SDS011;23195;47.744;7.358;2022-12-18T02:50:38;93.43;;;22.17;;
37309;SDS011;23195;47.744;7.358;2022-12-18T02:58:45;124.80;;;23.70;;
37309;SDS011;23195;47.744;7.358;2022-12-18T03:04:20;88.80;;;23.33;;
37309;SDS011;23195;47.744;7.358;2022-12-18T03:06:59;125.03;;;23.87;;
37309;SDS011;23195;47.744;7.358;2022-12-18T03:09:34;152.00;;;25.10;;
37309;SDS011;23195;47.744;7.358;2022-12-18T03:12:09;119.60;;;23.60;;
37309;SDS011;23195;47.744;7.358;2022-12-18T03:18:05;121.90;;;23.30;;
37309;SDS011;23195;47.744;7.358;2022-12-18T03:20:35;109.10;;;22.97;;
37309;SDS011;23195;47.744;7.358;2022-12-18T03:23:09;147.30;;;26.23;;
37309;SDS011;23195;47.744;7.358;2022-12-18T03:25:43;128.43;;;23.90;;
37309;SDS011;23195;47.744;7.358;2022-12-18T03:28:15;95.23;;;23.83;;
37309;SDS011;23195;47.744;7.358;2022-12-18T03:30:45;118.30;;;23.07;;
37309;SDS011;23195;47.744;7.358;2022-12-18T03:33:24;95.77;;;22.97;;
37309;SDS011;23195;47.744;7.358;2022-12-18T03:36:02;98.67;;;24.20;;
37309;SDS011;23195;47.744;7.358;2022-12-18T03:38:28;124.23;;;23.83;;
37309;SDS011;23195;47.744;7.358;2022-12-18T03:41:03;97.20;;;22.87;;
37309;SDS011;23195;47.744;7.358;2022-12-18T03:49:33;105.87;;;24.53;;
37309;SDS011;23195;47.744;7.358;2022-12-18T03:52:09;95.60;;;24.27;;
37309;SDS011;23195;47.744;7.358;2022-12-18T03:54:39;114.23;;;25.03;;
37309;SDS011;23195;47.744;7.358;2022-12-18T03:57:15;93.20;;;24.97;;
37309;SDS011;23195;47.744;7.358;2022-12-18T03:59:47;98.70;;;24.73;;
37309;SDS011;23195;47.744;7.358;2022-12-18T04:02:17;134.20;;;27.33;;
37309;SDS011;23195;47.744;7.358;2022-12-18T04:04:47;108.10;;;25.50;;
37309;SDS011;23195;47.744;7.358;2022-12-18T04:07:20;125.07;;;27.93;;
37309;SDS011;23195;47.744;7.358;2022-12-18T04:09:47;99.83;;;24.93;;
37309;SDS011;23195;47.744;7.358;2022-12-18T04:12:16;113.63;;;25.00;;
37309;SDS011;23195;47.744;7.358;2022-12-18T04:14:42;123.60;;;25.27;;
37309;SDS011;23195;47.744;7.358;2022-12-18T04:17:08;115.33;;;26.50;;
37309;SDS011;23195;47.744;7.358;2022-12-18T04:19:34;104.27;;;26.23;;
37309;SDS011;23195;47.744;7.358;2022-12-18T04:22:00;108.47;;;26.07;;
37309;SDS011;23195;47.744;7.358;2022-12-18T04:24:25;90.87;;;26.17;;
37309;SDS011;23195;47.744;7.358;2022-12-18T04:26:54;99.30;;;24.70;;
37309;SDS011;23195;47.744;7.358;2022-12-18T04:29:19;116.57;;;25.93;;
37309;SDS011;23195;47.744;7.358;2022-12-18T04:31:45;146.50;;;25.90;;
37309;SDS011;23195;47.744;7.358;2022-12-18T04:34:11;131.53;;;26.33;;
37309;SDS011;23195;47.744;7.358;2022-12-18T04:36:37;123.70;;;26.73;;
37309;SDS011;23195;47.744;7.358;2022-12-18T04:39:03;107.00;;;24.53;;
37309;SDS011;23195;47.744;7.358;2022-12-18T04:41:28;104.20;;;24.63;;
37309;SDS011;23195;47.744;7.358;2022-12-18T04:43:54;127.13;;;25.37;;
37309;SDS011;23195;47.744;7.358;2022-12-18T04:46:23;105.33;;;24.63;;
37309;SDS011;23195;47.744;7.358;2022-12-18T04:48:49;116.87;;;25.30;;
37309;SDS011;23195;47.744;7.358;2022-12-18T04:51:14;118.40;;;25.17;;
37309;SDS011;23195;47.744;7.358;2022-12-18T04:53:43;103.97;;;24.63;;
37309;SDS011;23195;47.744;7.358;2022-12-18T04:56:10;103.53;;;24.53;;
37309;SDS011;23195;47.744;7.358;2022-12-18T04:58:41;113.27;;;24.40;;
37309;SDS011;23195;47.744;7.358;2022-12-18T05:01:09;106.50;;;25.03;;
37309;SDS011;23195;47.744;7.358;2022-12-18T05:03:37;92.47;;;25.13;;
37309;SDS011;23195;47.744;7.358;2022-12-18T05:06:03;110.73;;;26.43;;
37309;SDS011;23195;47.744;7.358;2022-12-18T05:08:33;98.57;;;25.00;;
37309;SDS011;23195;47.744;7.358;2022-12-18T05:11:03;137.37;;;25.90;;
37309;SDS011;23195;47.744;7.358;2022-12-18T05:13:34;102.27;;;23.90;;
37309;SDS011;23195;47.744;7.358;2022-12-18T05:16:03;84.67;;;24.27;;
37309;SDS011;23195;47.744;7.358;2022-12-18T05:18:32;110.60;;;25.30;;
37309;SDS011;23195;47.744;7.358;2022-12-18T05:21:01;106.40;;;25.80;;
37309;SDS011;23195;47.744;7.358;2022-12-18T05:23:31;99.43;;;25.23;;
37309;SDS011;23195;47.744;7.358;2022-12-18T05:26:01;95.00;;;25.10;;
37309;SDS011;23195;47.744;7.358;2022-12-18T05:28:31;109.80;;;25.73;;
37309;SDS011;23195;47.744;7.358;2022-12-18T05:31:00;104.33;;;25.47;;
37309;SDS011;23195;47.744;7.358;2022-12-18T05:33:30;105.40;;;25.57;;
37309;SDS011;23195;47.744;7.358;2022-12-18T05:35:58;114.40;;;25.90;;
37309;SDS011;23195;47.744;7.358;2022-12-18T05:38:26;105.03;;;26.40;;
37309;SDS011;23195;47.744;7.358;2022-12-18T05:40:58;110.57;;;25.30;;
37309;SDS011;23195;47.744;7.358;2022-12-18T05:43:25;98.63;;;26.20;;
37309;SDS011;23195;47.744;7.358;2022-12-18T05:45:52;102.50;;;23.90;;
37309;SDS011;23195;47.744;7.358;2022-12-18T05:48:18;95.47;;;24.27;;
37309;SDS011;23195;47.744;7.358;2022-12-18T05:50:45;103.93;;;25.47;;
37309;SDS011;23195;47.744;7.358;2022-12-18T05:53:12;103.17;;;26.20;;
37309;SDS011;23195;47.744;7.358;2022-12-18T05:55:42;105.07;;;25.87;;
37309;SDS011;23195;47.744;7.358;2022-12-18T05:58:14;101.17;;;25.07;;
37309;SDS011;23195;47.744;7.358;2022-12-18T06:00:45;102.93;;;26.07;;
37309;SDS011;23195;47.744;7.358;2022-12-18T06:03:19;102.57;;;25.03;;
37309;SDS011;23195;47.744;7.358;2022-12-18T06:05:45;99.67;;;25.40;;
37309;SDS011;23195;47.744;7.358;2022-12-18T06:08:11;101.60;;;25.47;;
37309;SDS011;23195;47.744;7.358;2022-12-18T06:10:38;98.67;;;25.10;;
37309;SDS011;23195;47.744;7.358;2022-12-18T06:13:07;96.97;;;24.40;;
37309;SDS011;23195;47.744;7.358;2022-12-18T06:15:32;85.17;;;23.87;;
37309;SDS011;23195;47.744;7.358;2022-12-18T06:18:01;96.07;;;25.30;;
37309;SDS011;23195;47.744;7.358;2022-12-18T06:20:30;102.60;;;26.50;;
37309;SDS011;23195;47.744;7.358;2022-12-18T06:23:28;97.10;;;26.70;;
37309;SDS011;23195;47.744;7.358;2022-12-18T06:26:42;106.53;;;27.10;;
37309;SDS011;23195;47.744;7.358;2022-12-18T06:29:27;105.20;;;26.53;;
37309;SDS011;23195;47.744;7.358;2022-12-18T06:32:31;101.80;;;26.73;;
37309;SDS011;23195;47.744;7.358;2022-12-18T06:35:38;98.93;;;26.07;;
37309;SDS011;23195;47.744;7.358;2022-12-18T06:41:34;99.53;;;25.87;;
37309;SDS011;23195;47.744;7.358;2022-12-18T06:44:30;103.93;;;25.27;;
37309;SDS011;23195;47.744;7.358;2022-12-18T06:47:10;91.27;;;24.17;;
37309;SDS011;23195;47.744;7.358;2022-12-18T06:49:55;91.13;;;25.13;;
37309;SDS011;23195;47.744;7.358;2022-12-18T06:52:40;96.47;;;25.77;;
37309;SDS011;23195;47.744;7.358;2022-12-18T06:55:40;99.70;;;25.00;;
37309;SDS011;23195;47.744;7.358;2022-12-18T06:58:25;103.77;;;25.67;;
37309;SDS011;23195;47.744;7.358;2022-12-18T07:04:09;97.40;;;26.60;;
37309;SDS011;23195;47.744;7.358;2022-12-18T07:06:35;98.87;;;26.00;;
37309;SDS011;23195;47.744;7.358;2022-12-18T07:09:01;99.70;;;27.17;;
37309;SDS011;23195;47.744;7.358;2022-12-18T07:11:27;96.03;;;27.10;;
37309;SDS011;23195;47.744;7.358;2022-12-18T07:13:52;96.73;;;26.50;;
37309;SDS011;23195;47.744;7.358;2022-12-18T07:16:19;104.40;;;27.67;;
37309;SDS011;23195;47.744;7.358;2022-12-18T07:18:46;95.07;;;28.03;;
37309;SDS011;23195;47.744;7.358;2022-12-18T07:21:14;109.27;;;29.43;;
37309;SDS011;23195;47.744;7.358;2022-12-18T07:23:42;100.80;;;28.03;;
37309;SDS011;23195;47.744;7.358;2022-12-18T07:26:12;105.33;;;27.67;;
37309;SDS011;23195;47.744;7.358;2022-12-18T07:28:40;105.40;;;27.83;;
37309;SDS011;23195;47.744;7.358;2022-12-18T07:31:11;104.67;;;27.93;;
37309;SDS011;23195;47.744;7.358;2022-12-18T07:33:40;98.40;;;27.23;;
37309;SDS011;23195;47.744;7.358;2022-12-18T07:36:07;88.43;;;27.03;;
37309;SDS011;23195;47.744;7.358;2022-12-18T07:38:36;96.83;;;27.57;;
37309;SDS011;23195;47.744;7.358;2022-12-18T07:41:07;88.10;;;27.27;;
37309;SDS011;23195;47.744;7.358;2022-12-18T07:43:35;91.07;;;26.50;;
37309;SDS011;23195;47.744;7.358;2022-12-18T07:46:01;90.93;;;26.80;;
37309;SDS011;23195;47.744;7.358;2022-12-18T07:48:28;92.37;;;25.07;;
37309;SDS011;23195;47.744;7.358;2022-12-18T07:50:57;78.40;;;24.87;;
37309;SDS011;23195;47.744;7.358;2022-12-18T07:53:24;87.60;;;25.50;;
37309;SDS011;23195;47.744;7.358;2022-12-18T07:55:54;96.60;;;26.70;;
37309;SDS011;23195;47.744;7.358;2022-12-18T07:58:24;93.03;;;27.03;;
37309;SDS011;23195;47.744;7.358;2022-12-18T08:00:50;90.27;;;26.93;;
37309;SDS011;23195;47.744;7.358;2022-12-18T08:03:17;92.30;;;28.47;;
37309;SDS011;23195;47.744;7.358;2022-12-18T08:05:49;96.43;;;27.67;;
37309;SDS011;23195;47.744;7.358;2022-12-18T08:08:18;88.93;;;27.57;;
37309;SDS011;23195;47.744;7.358;2022-12-18T08:10:43;92.47;;;28.50;;
37309;SDS011;23195;47.744;7.358;2022-12-18T08:13:09;91.67;;;26.77;;
37309;SDS011;23195;47.744;7.358;2022-12-18T08:15:35;104.93;;;29.00;;
37309;SDS011;23195;47.744;7.358;2022-12-18T08:18:01;90.43;;;27.03;;
37309;SDS011;23195;47.744;7.358;2022-12-18T08:20:26;96.83;;;28.93;;
37309;SDS011;23195;47.744;7.358;2022-12-18T08:22:52;93.90;;;28.10;;
37309;SDS011;23195;47.744;7.358;2022-12-18T08:25:19;89.70;;;27.20;;
37309;SDS011;23195;47.744;7.358;2022-12-18T08:27:44;94.57;;;27.43;;
37309;SDS011;23195;47.744;7.358;2022-12-18T08:30:10;94.23;;;28.30;;
37309;SDS011;23195;47.744;7.358;2022-12-18T08:32:36;92.73;;;27.87;;
37309;SDS011;23195;47.744;7.358;2022-12-18T08:35:02;88.90;;;28.03;;
37309;SDS011;23195;47.744;7.358;2022-12-18T08:37:31;90.43;;;26.90;;
37309;SDS011;23195;47.744;7.358;2022-12-18T08:39:57;103.43;;;27.60;;
37309;SDS011;23195;47.744;7.358;2022-12-18T08:42:23;93.47;;;26.87;;
37309;SDS011;23195;47.744;7.358;2022-12-18T08:45:07;99.33;;;27.67;;
37309;SDS011;23195;47.744;7.358;2022-12-18T08:47:36;94.60;;;28.90;;
37309;SDS011;23195;47.744;7.358;2022-12-18T08:50:02;99.93;;;28.57;;
37309;SDS011;23195;47.744;7.358;2022-12-18T08:52:28;90.03;;;26.83;;
37309;SDS011;23195;47.744;7.358;2022-12-18T08:54:56;96.77;;;28.07;;
37309;SDS011;23195;47.744;7.358;2022-12-18T08:57:24;93.53;;;30.13;;
37309;SDS011;23195;47.744;7.358;2022-12-18T08:59:50;97.30;;;29.00;;
37309;SDS011;23195;47.744;7.358;2022-12-18T09:02:19;104.70;;;30.47;;
37309;SDS011;23195;47.744;7.358;2022-12-18T09:04:46;100.83;;;30.53;;
37309;SDS011;23195;47.744;7.358;2022-12-18T09:07:13;92.50;;;30.03;;
37309;SDS011;23195;47.744;7.358;2022-12-18T09:09:46;94.30;;;30.43;;
37309;SDS011;23195;47.744;7.358;2022-12-18T09:12:15;93.10;;;29.17;;
37309;SDS011;23195;47.744;7.358;2022-12-18T09:14:41;97.33;;;29.53;;
37309;SDS011;23195;47.744;7.358;2022-12-18T09:17:07;98.73;;;31.30;;
37309;SDS011;23195;47.744;7.358;2022-12-18T09:19:36;96.10;;;29.93;;
37309;SDS011;23195;47.744;7.358;2022-12-18T09:22:08;92.20;;;29.67;;
37309;SDS011;23195;47.744;7.358;2022-12-18T09:24:34;96.20;;;29.40;;
37309;SDS011;23195;47.744;7.358;2022-12-18T09:27:03;104.80;;;31.63;;
37309;SDS011;23195;47.744;7.358;2022-12-18T09:29:29;98.10;;;30.63;;
37309;SDS011;23195;47.744;7.358;2022-12-18T09:31:58;100.90;;;31.63;;
37309;SDS011;23195;47.744;7.358;2022-12-18T09:34:27;100.93;;;32.53;;
37309;SDS011;23195;47.744;7.358;2022-12-18T09:36:53;101.73;;;33.57;;
37309;SDS011;23195;47.744;7.358;2022-12-18T09:39:19;95.43;;;31.97;;
37309;SDS011;23195;47.744;7.358;2022-12-18T09:41:46;94.97;;;31.83;;
37309;SDS011;23195;47.744;7.358;2022-12-18T09:44:20;99.07;;;32.33;;
37309;SDS011;23195;47.744;7.358;2022-12-18T09:47:00;89.77;;;31.10;;
37309;SDS011;23195;47.744;7.358;2022-12-18T09:49:56;90.93;;;30.17;;
37309;SDS011;23195;47.744;7.358;2022-12-18T09:52:45;88.70;;;30.07;;
37309;SDS011;23195;47.744;7.358;2022-12-18T09:58:07;87.27;;;29.63;;
37309;SDS011;23195;47.744;7.358;2022-12-18T10:00:54;80.50;;;29.03;;
37309;SDS011;23195;47.744;7.358;2022-12-18T10:03:28;88.30;;;29.63;;
37309;SDS011;23195;47.744;7.358;2022-12-18T10:23:18;86.83;;;29.50;;
37309;SDS011;23195;47.744;7.358;2022-12-18T10:26:07;78.97;;;28.77;;
37309;SDS011;23195;47.744;7.358;2022-12-18T10:28:43;76.23;;;28.77;;
37309;SDS011;23195;47.744;7.358;2022-12-18T10:31:17;88.33;;;31.37;;
37309;SDS011;23195;47.744;7.358;2022-12-18T10:33:48;87.63;;;30.13;;
37309;SDS011;23195;47.744;7.358;2022-12-18T10:36:17;84.90;;;30.20;;
37309;SDS011;23195;47.744;7.358;2022-12-18T10:38:43;80.33;;;29.07;;
37309;SDS011;23195;47.744;7.358;2022-12-18T10:43:47;82.87;;;28.63;;
37309;SDS011;23195;47.744;7.358;2022-12-18T10:46:19;82.03;;;28.93;;
37309;SDS011;23195;47.744;7.358;2022-12-18T10:51:28;80.20;;;28.13;;
37309;SDS011;23195;47.744;7.358;2022-12-18T10:54:00;84.13;;;29.50;;
37309;SDS011;23195;47.744;7.358;2022-12-18T10:56:43;79.47;;;27.97;;
37309;SDS011;23195;47.744;7.358;2022-12-18T10:59:18;82.13;;;28.83;;
37309;SDS011;23195;47.744;7.358;2022-12-18T11:04:35;80.43;;;29.37;;
37309;SDS011;23195;47.744;7.358;2022-12-18T11:07:26;80.47;;;29.10;;
37309;SDS011;23195;47.744;7.358;2022-12-18T11:10:23;81.57;;;29.53;;
37309;SDS011;23195;47.744;7.358;2022-12-18T11:13:10;78.13;;;28.00;;
37309;SDS011;23195;47.744;7.358;2022-12-18T11:15:57;78.73;;;29.30;;
37309;SDS011;23195;47.744;7.358;2022-12-18T11:18:28;81.47;;;30.20;;
37309;SDS011;23195;47.744;7.358;2022-12-18T11:20:58;82.43;;;30.27;;
37309;SDS011;23195;47.744;7.358;2022-12-18T11:23:35;82.77;;;30.43;;
37309;SDS011;23195;47.744;7.358;2022-12-18T11:26:03;92.40;;;32.23;;
37309;SDS011;23195;47.744;7.358;2022-12-18T11:28:34;84.37;;;31.73;;
37309;SDS011;23195;47.744;7.358;2022-12-18T11:33:53;86.83;;;32.40;;
37309;SDS011;23195;47.744;7.358;2022-12-18T11:36:28;85.70;;;32.17;;
37309;SDS011;23195;47.744;7.358;2022-12-18T11:38:58;84.67;;;31.80;;
37309;SDS011;23195;47.744;7.358;2022-12-18T11:41:36;90.43;;;33.50;;
37309;SDS011;23195;47.744;7.358;2022-12-18T11:44:47;95.80;;;33.80;;
37309;SDS011;23195;47.744;7.358;2022-12-18T11:50:51;83.33;;;32.20;;
37309;SDS011;23195;47.744;7.358;2022-12-18T11:53:11;91.03;;;32.80;;
37309;SDS011;23195;47.744;7.358;2022-12-18T11:55:49;84.60;;;30.47;;
37309;SDS011;23195;47.744;7.358;2022-12-18T12:12:10;88.53;;;31.63;;
37309;SDS011;23195;47.744;7.358;2022-12-18T12:29:31;82.70;;;30.77;;
37309;SDS011;23195;47.744;7.358;2022-12-18T12:40:31;84.33;;;30.57;;
37309;SDS011;23195;47.744;7.358;2022-12-18T12:45:53;80.13;;;29.40;;
37309;SDS011;23195;47.744;7.358;2022-12-18T12:51:00;75.90;;;27.60;;
37309;SDS011;23195;47.744;7.358;2022-12-18T12:53:36;75.90;;;27.00;;
37309;SDS011;23195;47.744;7.358;2022-12-18T12:56:04;76.23;;;27.00;;
37309;SDS011;23195;47.744;7.358;2022-12-18T13:12:53;84.90;;;31.27;;
37309;SDS011;23195;47.744;7.358;2022-12-18T13:15:40;82.83;;;30.43;;
37309;SDS011;23195;47.744;7.358;2022-12-18T13:18:25;84.80;;;32.50;;
37309;SDS011;23195;47.744;7.358;2022-12-18T13:25:51;73.97;;;28.00;;
37309;SDS011;23195;47.744;7.358;2022-12-18T13:31:13;80.07;;;28.00;;
37309;SDS011;23195;47.744;7.358;2022-12-18T13:36:16;80.60;;;28.30;;
37309;SDS011;23195;47.744;7.358;2022-12-18T13:41:47;81.37;;;30.10;;
37309;SDS011;23195;47.744;7.358;2022-12-18T13:47:24;83.90;;;30.53;;
37309;SDS011;23195;47.744;7.358;2022-12-18T13:50:01;90.13;;;30.43;;
37309;SDS011;23195;47.744;7.358;2022-12-18T13:52:37;82.00;;;29.07;;
37309;SDS011;23195;47.744;7.358;2022-12-18T13:55:06;85.33;;;30.20;;
37309;SDS011;23195;47.744;7.358;2022-12-18T13:57:43;81.30;;;30.13;;
37309;SDS011;23195;47.744;7.358;2022-12-18T14:02:50;77.63;;;28.20;;
37309;SDS011;23195;47.744;7.358;2022-12-18T14:05:22;75.10;;;28.30;;
37309;SDS011;23195;47.744;7.358;2022-12-18T14:07:52;78.13;;;28.37;;
37309;SDS011;23195;47.744;7.358;2022-12-18T14:10:30;78.20;;;28.93;;
37309;SDS011;23195;47.744;7.358;2022-12-18T14:13:02;70.90;;;27.07;;
37309;SDS011;23195;47.744;7.358;2022-12-18T14:15:35;71.43;;;27.93;;
37309;SDS011;23195;47.744;7.358;2022-12-18T14:21:06;66.93;;;26.70;;
37309;SDS011;23195;47.744;7.358;2022-12-18T14:24:02;68.87;;;28.07;;
37309;SDS011;23195;47.744;7.358;2022-12-18T14:26:30;73.33;;;29.13;;
37309;SDS011;23195;47.744;7.358;2022-12-18T14:28:59;78.03;;;31.27;;
37309;SDS011;23195;47.744;7.358;2022-12-18T14:31:37;68.20;;;29.07;;
37309;SDS011;23195;47.744;7.358;2022-12-18T14:34:16;71.73;;;29.33;;
37309;SDS011;23195;47.744;7.358;2022-12-18T14:36:52;62.67;;;28.07;;
37309;SDS011;23195;47.744;7.358;2022-12-18T14:39:29;63.33;;;25.23;;
37309;SDS011;23195;47.744;7.358;2022-12-18T14:41:55;59.67;;;24.17;;
37309;SDS011;23195;47.744;7.358;2022-12-18T14:44:24;52.27;;;22.40;;
37309;SDS011;23195;47.744;7.358;2022-12-18T14:46:52;55.63;;;22.07;;
37309;SDS011;23195;47.744;7.358;2022-12-18T14:49:23;55.97;;;21.40;;
37309;SDS011;23195;47.744;7.358;2022-12-18T14:51:57;55.93;;;21.67;;
37309;SDS011;23195;47.744;7.358;2022-12-18T14:54:31;56.07;;;22.37;;
37309;SDS011;23195;47.744;7.358;2022-12-18T15:00:05;52.03;;;21.33;;
37309;SDS011;23195;47.744;7.358;2022-12-18T15:02:43;54.97;;;22.07;;
37309;SDS011;23195;47.744;7.358;2022-12-18T15:05:29;63.40;;;26.27;;
37309;SDS011;23195;47.744;7.358;2022-12-18T15:08:02;63.87;;;27.07;;
37309;SDS011;23195;47.744;7.358;2022-12-18T15:10:29;60.43;;;25.60;;
37309;SDS011;23195;47.744;7.358;2022-12-18T15:13:08;59.57;;;25.40;;
37309;SDS011;23195;47.744;7.358;2022-12-18T15:16:00;65.37;;;25.33;;
37309;SDS011;23195;47.744;7.358;2022-12-18T15:18:35;59.90;;;24.07;;
37309;SDS011;23195;47.744;7.358;2022-12-18T15:21:19;55.07;;;22.10;;
37309;SDS011;23195;47.744;7.358;2022-12-18T15:23:53;57.27;;;23.37;;
37309;SDS011;23195;47.744;7.358;2022-12-18T15:26:30;58.57;;;24.10;;
37309;SDS011;23195;47.744;7.358;2022-12-18T15:29:14;57.87;;;23.53;;
37309;SDS011;23195;47.744;7.358;2022-12-18T15:32:04;61.57;;;25.63;;
37309;SDS011;23195;47.744;7.358;2022-12-18T15:34:40;58.90;;;25.37;;
37309;SDS011;23195;47.744;7.358;2022-12-18T15:37:09;57.90;;;25.47;;
37309;SDS011;23195;47.744;7.358;2022-12-18T15:39:38;65.37;;;26.87;;
37309;SDS011;23195;47.744;7.358;2022-12-18T15:42:09;68.57;;;28.10;;
37309;SDS011;23195;47.744;7.358;2022-12-18T15:44:54;65.47;;;27.43;;
37309;SDS011;23195;47.744;7.358;2022-12-18T15:47:22;64.90;;;27.17;;
37309;SDS011;23195;47.744;7.358;2022-12-18T15:49:48;69.53;;;29.30;;
37309;SDS011;23195;47.744;7.358;2022-12-18T15:52:14;63.40;;;25.20;;
37309;SDS011;23195;47.744;7.358;2022-12-18T15:54:50;60.53;;;25.20;;
37309;SDS011;23195;47.744;7.358;2022-12-18T15:57:37;66.47;;;28.63;;
37309;SDS011;23195;47.744;7.358;2022-12-18T16:00:06;58.57;;;24.10;;
37309;SDS011;23195;47.744;7.358;2022-12-18T16:02:39;52.93;;;24.33;;
37309;SDS011;23195;47.744;7.358;2022-12-18T16:05:09;57.13;;;24.47;;
37309;SDS011;23195;47.744;7.358;2022-12-18T16:07:39;56.07;;;25.10;;
37309;SDS011;23195;47.744;7.358;2022-12-18T16:10:06;62.97;;;25.60;;
37309;SDS011;23195;47.744;7.358;2022-12-18T16:12:35;56.27;;;23.23;;
37309;SDS011;23195;47.744;7.358;2022-12-18T16:15:10;61.13;;;24.50;;
37309;SDS011;23195;47.744;7.358;2022-12-18T16:17:45;66.57;;;24.90;;
37309;SDS011;23195;47.744;7.358;2022-12-18T16:20:27;56.33;;;23.77;;
37309;SDS011;23195;47.744;7.358;2022-12-18T16:22:55;59.73;;;24.63;;
37309;SDS011;23195;47.744;7.358;2022-12-18T16:25:22;57.23;;;24.30;;
37309;SDS011;23195;47.744;7.358;2022-12-18T16:27:54;60.13;;;24.67;;
37309;SDS011;23195;47.744;7.358;2022-12-18T16:30:25;60.73;;;26.00;;
37309;SDS011;23195;47.744;7.358;2022-12-18T16:33:06;50.57;;;23.93;;
37309;SDS011;23195;47.744;7.358;2022-12-18T16:35:46;58.47;;;23.80;;
37309;SDS011;23195;47.744;7.358;2022-12-18T16:38:19;56.60;;;23.27;;
37309;SDS011;23195;47.744;7.358;2022-12-18T16:40:57;55.67;;;22.33;;
37309;SDS011;23195;47.744;7.358;2022-12-18T16:43:41;56.47;;;22.13;;
37309;SDS011;23195;47.744;7.358;2022-12-18T16:46:20;51.60;;;22.00;;
37309;SDS011;23195;47.744;7.358;2022-12-18T16:48:59;53.23;;;22.73;;
37309;SDS011;23195;47.744;7.358;2022-12-18T16:51:35;57.20;;;23.17;;
37309;SDS011;23195;47.744;7.358;2022-12-18T16:54:11;56.90;;;22.87;;
37309;SDS011;23195;47.744;7.358;2022-12-18T16:56:43;57.80;;;23.60;;
37309;SDS011;23195;47.744;7.358;2022-12-18T16:59:21;57.87;;;22.80;;
37309;SDS011;23195;47.744;7.358;2022-12-18T17:02:05;60.63;;;24.83;;
37309;SDS011;23195;47.744;7.358;2022-12-18T17:04:46;55.43;;;23.13;;
37309;SDS011;23195;47.744;7.358;2022-12-18T17:07:19;53.93;;;22.37;;
37309;SDS011;23195;47.744;7.358;2022-12-18T17:10:03;54.60;;;23.27;;
37309;SDS011;23195;47.744;7.358;2022-12-18T17:12:32;53.20;;;23.57;;
37309;SDS011;23195;47.744;7.358;2022-12-18T17:15:08;52.90;;;22.70;;
37309;SDS011;23195;47.744;7.358;2022-12-18T17:17:54;56.10;;;23.70;;
37309;SDS011;23195;47.744;7.358;2022-12-18T17:20:57;67.00;;;25.57;;
37309;SDS011;23195;47.744;7.358;2022-12-18T17:23:38;62.83;;;26.70;;
37309;SDS011;23195;47.744;7.358;2022-12-18T17:26:15;62.20;;;24.93;;